Time;durP1;ratioP1;P1;durP2;ratioP2;P2;SDS_P1;SDS_P2;PMS_P1;PMS_P2;Temp;Humidity;BMP_temperature;BMP_pressure;BME280_temperature;BME280_humidity;BME280_pressure;Samples;Min_cycle;Max_cycle;Signal;HPM_P1;HPM_P2
2023/08/13 00:02:12;;;;;;;3.67;3.37;;;;;;;22.47;65.97;95268.34;5037292;28;20460;-77
2023/08/13 00:04:40;;;;;;;4.47;4.07;;;;;;;22.48;66.16;95270.00;5053850;28;20434;-77
2023/08/13 00:07:09;;;;;;;4.43;4.10;;;;;;;22.50;66.22;95264.47;5055687;28;20441;-77
2023/08/13 00:09:43;;;;;;;4.60;4.17;;;;;;;22.48;66.14;95264.66;5076461;28;20457;-78
2023/08/13 00:12:10;;;;;;;9.07;4.53;;;;;;;22.48;66.23;95266.50;5076080;28;20479;-77
2023/08/13 00:14:37;;;;;;;4.90;4.10;;;;;;;22.49;66.49;95270.84;5076077;28;20482;-77
2023/08/13 00:17:04;;;;;;;4.03;3.80;;;;;;;22.47;66.64;95271.03;5057293;28;20522;-78
2023/08/13 00:19:31;;;;;;;7.00;3.70;;;;;;;22.46;67.10;95273.91;5041316;28;20529;-77
2023/08/13 00:21:58;;;;;;;5.20;4.70;;;;;;;22.40;67.87;95272.00;5074496;28;20431;-77
2023/08/13 00:24:25;;;;;;;6.37;4.00;;;;;;;22.25;67.96;95266.72;5077230;28;20443;-77
2023/08/13 00:26:53;;;;;;;4.50;4.20;;;;;;;22.24;68.49;95265.91;5077085;28;20439;-77
2023/08/13 00:29:20;;;;;;;5.07;4.67;;;;;;;22.19;68.76;95265.66;5076457;28;20459;-77
2023/08/13 00:31:47;;;;;;;4.33;4.03;;;;;;;22.16;68.53;95270.56;5075751;28;20484;-77
2023/08/13 00:34:13;;;;;;;4.73;4.33;;;;;;;22.15;69.08;95266.25;5075682;28;20474;-77
2023/08/13 00:36:42;;;;;;;5.50;4.87;;;;;;;22.05;69.32;95277.25;5076258;28;20440;-77
2023/08/13 00:39:09;;;;;;;5.10;4.60;;;;;;;22.00;69.87;95271.63;5076283;28;20962;-78
2023/08/13 00:41:36;;;;;;;4.37;4.00;;;;;;;21.92;70.24;95277.09;5077355;28;20474;-77
2023/08/13 00:44:05;;;;;;;4.53;3.90;;;;;;;21.85;70.78;95277.03;5076629;28;20447;-77
2023/08/13 00:46:32;;;;;;;5.00;4.60;;;;;;;21.80;70.95;95279.44;5076213;28;20449;-78
2023/08/13 00:49:01;;;;;;;4.70;4.33;;;;;;;21.76;71.04;95277.34;5057274;28;20428;-78
2023/08/13 00:51:28;;;;;;;4.73;4.33;;;;;;;21.72;71.76;95278.75;5057359;28;20488;-77
2023/08/13 00:53:55;;;;;;;5.30;4.80;;;;;;;21.70;72.19;95273.59;5075779;28;20447;-77
2023/08/13 00:56:23;;;;;;;5.27;4.87;;;;;;;21.67;72.38;95275.78;5074991;28;20831;-76
2023/08/13 00:58:51;;;;;;;5.10;4.70;;;;;;;21.65;72.34;95274.13;5075471;28;20481;-77
2023/08/13 01:01:19;;;;;;;6.40;4.83;;;;;;;21.58;71.77;95283.09;5075134;28;20930;-75
2023/08/13 01:03:46;;;;;;;7.10;5.00;;;;;;;21.54;71.46;95273.81;5075049;28;20446;-77
2023/08/13 01:06:18;;;;;;;5.30;4.73;;;;;;;21.36;71.30;95276.03;5075616;28;20447;-76
2023/08/13 01:08:56;;;;;;;5.63;5.13;;;;;;;21.24;72.06;95273.03;5075627;28;20436;-77
2023/08/13 01:11:32;;;;;;;5.60;5.20;;;;;;;21.24;72.90;95273.03;5075503;28;20486;-78
2023/08/13 01:14:08;;;;;;;5.43;5.03;;;;;;;21.18;72.88;95273.75;5075379;28;21002;-77
2023/08/13 01:16:41;;;;;;;5.80;5.30;;;;;;;21.19;72.57;95272.75;5075157;28;20472;-77
2023/08/13 01:19:10;;;;;;;5.33;5.00;;;;;;;21.11;73.02;95272.84;5075378;28;20445;-77
2023/08/13 01:21:37;;;;;;;7.83;5.80;;;;;;;21.11;73.30;95267.50;5075259;28;20446;-77
2023/08/13 01:24:06;;;;;;;6.70;6.10;;;;;;;21.10;73.57;95271.16;5075145;28;20452;-78
2023/08/13 01:26:38;;;;;;;7.20;5.17;;;;;;;21.12;73.61;95274.50;5056242;28;20445;-76
2023/08/13 01:29:13;;;;;;;6.10;5.50;;;;;;;21.12;73.99;95272.66;5075107;28;20436;-77
2023/08/13 01:31:43;;;;;;;5.97;5.47;;;;;;;21.14;73.85;95257.28;5074823;28;20482;-77
2023/08/13 01:34:12;;;;;;;6.90;5.90;;;;;;;21.15;73.70;95272.28;5055917;28;20438;-77
2023/08/13 01:36:38;;;;;;;7.23;5.17;;;;;;;21.04;74.16;95268.22;5072819;28;20993;-77
2023/08/13 01:39:07;;;;;;;6.90;6.30;;;;;;;20.99;74.69;95273.28;5074629;28;20442;-78
2023/08/13 01:41:36;;;;;;;6.03;5.57;;;;;;;20.97;75.01;95271.81;5074772;28;20438;-77
2023/08/13 01:44:03;;;;;;;6.67;5.97;;;;;;;20.98;74.94;95268.97;5074181;28;20485;-77
2023/08/13 01:46:30;;;;;;;6.23;5.57;;;;;;;20.97;75.08;95259.31;5074722;28;20452;-77
2023/08/13 01:48:57;;;;;;;6.10;5.60;;;;;;;20.98;75.11;95268.16;5056251;28;20429;-77
2023/08/13 01:51:25;;;;;;;6.10;5.60;;;;;;;20.98;75.02;95266.31;5074293;28;20840;-77
2023/08/13 01:53:52;;;;;;;5.83;5.33;;;;;;;20.99;74.89;95265.28;5056069;28;20937;-78
2023/08/13 01:56:20;;;;;;;5.87;5.33;;;;;;;21.01;75.33;95257.09;5074526;28;20452;-75
2023/08/13 01:58:47;;;;;;;6.60;6.10;;;;;;;21.01;75.37;95267.78;5074067;28;20444;-77
2023/08/13 02:01:14;;;;;;;8.00;5.90;;;;;;;20.99;75.37;95269.81;5074202;28;20475;-76
2023/08/13 02:03:40;;;;;;;5.50;5.10;;;;;;;20.91;75.62;95261.91;5073807;28;20451;-77
2023/08/13 02:06:07;;;;;;;7.63;5.97;;;;;;;20.90;75.50;95271.75;5074253;28;20445;-77
2023/08/13 02:08:34;;;;;;;6.97;4.80;;;;;;;20.77;75.26;95250.19;5074169;28;20453;-77
2023/08/13 02:11:01;;;;;;;6.77;4.93;;;;;;;20.73;76.49;95254.25;5073975;28;20483;-76
2023/08/13 02:13:29;;;;;;;5.90;5.40;;;;;;;20.77;76.26;95265.38;5073872;28;20474;-77
2023/08/13 02:16:02;;;;;;;5.37;4.87;;;;;;;20.71;76.09;95269.63;5074131;28;20450;-77
2023/08/13 02:18:29;;;;;;;5.27;4.87;;;;;;;20.67;76.44;95265.66;5074244;28;20536;-78
2023/08/13 02:20:56;;;;;;;6.63;5.33;;;;;;;20.61;76.80;95266.41;5073774;28;20440;-78
2023/08/13 02:23:25;;;;;;;4.23;3.93;;;;;;;20.58;76.35;95264.09;5073647;28;20441;-77
2023/08/13 02:25:55;;;;;;;5.90;5.40;;;;;;;20.57;76.05;95260.59;5073863;28;20541;-78
2023/08/13 02:28:22;;;;;;;5.60;5.20;;;;;;;20.60;76.44;95267.41;5073804;28;20444;-77
2023/08/13 02:30:51;;;;;;;5.80;5.30;;;;;;;20.61;76.33;95266.41;5072904;28;20445;-76
2023/08/13 02:33:21;;;;;;;5.73;4.67;;;;;;;20.58;75.90;95267.59;5073904;28;20447;-75
2023/08/13 02:35:48;;;;;;;6.23;4.83;;;;;;;20.57;76.23;95265.09;5073590;28;20452;-77
2023/08/13 02:38:16;;;;;;;5.37;4.87;;;;;;;20.56;76.14;95268.78;5073415;28;20446;-78
2023/08/13 02:40:43;;;;;;;6.23;5.30;;;;;;;20.48;76.42;95275.00;5073515;28;20450;-77
2023/08/13 02:43:10;;;;;;;5.60;5.10;;;;;;;20.42;76.10;95276.56;5074134;28;20441;-77
2023/08/13 02:45:37;;;;;;;6.50;5.90;;;;;;;20.35;76.38;95275.59;5073694;28;20440;-76
2023/08/13 02:48:06;;;;;;;5.77;5.27;;;;;;;20.27;76.49;95278.34;5074154;28;20447;-77
2023/08/13 02:50:32;;;;;;;10.10;6.40;;;;;;;20.22;76.83;95277.22;5073744;28;20528;-77
2023/08/13 02:53:02;;;;;;;5.27;4.77;;;;;;;20.15;76.79;95273.63;5073622;28;20492;-77
2023/08/13 02:55:29;;;;;;;5.57;5.10;;;;;;;20.14;76.91;95279.94;5072906;28;20447;-78
2023/08/13 02:57:56;;;;;;;5.30;4.80;;;;;;;20.11;76.54;95275.81;5054564;28;20452;-78
2023/08/13 03:00:23;;;;;;;5.73;5.10;;;;;;;20.08;76.42;95276.16;5073359;28;20799;-75
2023/08/13 03:02:49;;;;;;;5.30;4.90;;;;;;;20.05;76.40;95280.03;5071377;28;20443;-75
2023/08/13 03:05:19;;;;;;;5.30;4.80;;;;;;;20.04;76.12;95275.69;5054679;28;20431;-76
2023/08/13 03:07:45;;;;;;;6.33;4.93;;;;;;;20.03;76.10;95278.53;5072871;28;20433;-78
2023/08/13 03:10:13;;;;;;;9.10;4.20;;;;;;;20.04;75.93;95281.03;5073232;28;20451;-76
2023/08/13 03:12:39;;;;;;;6.53;4.90;;;;;;;20.04;75.99;95280.19;5072850;28;20492;-76
2023/08/13 03:15:07;;;;;;;5.93;5.33;;;;;;;20.04;75.75;95275.69;5073223;28;20449;-77
2023/08/13 03:17:34;;;;;;;6.10;4.77;;;;;;;20.00;76.00;95278.91;5020901;28;20452;-77
2023/08/13 03:20:01;;;;;;;5.80;5.30;;;;;;;20.03;76.00;95283.88;5073277;28;20437;-78
2023/08/13 03:22:29;;;;;;;5.97;5.50;;;;;;;19.96;75.68;95274.94;5072958;28;20528;-77
2023/08/13 03:24:56;;;;;;;5.20;4.70;;;;;;;19.93;75.39;95277.94;5071004;28;20444;-78
2023/08/13 03:27:23;;;;;;;10.60;5.57;;;;;;;19.86;75.34;95279.66;5072728;28;20450;-77
2023/08/13 03:29:50;;;;;;;7.83;4.80;;;;;;;19.85;75.04;95270.00;5072811;28;20441;-77
2023/08/13 03:32:16;;;;;;;7.00;6.30;;;;;;;19.84;74.76;95279.00;5072876;28;21008;-77
2023/08/13 03:34:43;;;;;;;4.80;4.50;;;;;;;19.84;74.40;95279.84;5072667;28;20447;-77
2023/08/13 03:37:10;;;;;;;5.90;5.37;;;;;;;19.83;74.63;95278.19;5072879;28;20953;-78
2023/08/13 03:39:38;;;;;;;5.10;4.60;;;;;;;19.84;74.67;95269.19;5072934;28;20491;-76
2023/08/13 03:42:05;;;;;;;5.63;5.13;;;;;;;19.84;74.79;95271.03;5076620;28;20816;-77
2023/08/13 03:44:32;;;;;;;5.77;5.27;;;;;;;19.84;75.03;95274.50;5057761;28;20817;-77
2023/08/13 03:46:59;;;;;;;4.80;4.40;;;;;;;19.87;75.34;95273.34;5076827;28;20444;-75
2023/08/13 03:49:26;;;;;;;6.70;4.90;;;;;;;19.87;75.62;95276.00;5076749;28;20452;-77
2023/08/13 03:51:53;;;;;;;5.87;5.27;;;;;;;19.86;75.57;95271.66;5076823;28;20484;-76
2023/08/13 03:54:19;;;;;;;5.23;4.73;;;;;;;19.89;75.59;95271.31;5076323;28;20805;-77
2023/08/13 03:56:47;;;;;;;5.83;5.20;;;;;;;19.85;75.86;95278.00;5076642;28;20443;-77
2023/08/13 03:59:14;;;;;;;5.13;4.73;;;;;;;19.93;75.39;95277.94;5076411;28;20821;-77
2023/08/13 04:01:41;;;;;;;7.60;5.50;;;;;;;19.88;75.72;95282.97;5076412;28;20455;-76
2023/08/13 04:04:08;;;;;;;7.83;5.27;;;;;;;19.98;75.86;95289.75;5076278;28;20430;-77
2023/08/13 04:06:35;;;;;;;5.93;5.33;;;;;;;20.10;76.04;95290.13;5076157;28;20469;-77
2023/08/13 04:09:02;;;;;;;5.53;5.10;;;;;;;20.44;75.21;95291.53;5057130;28;20953;-77
2023/08/13 04:11:29;;;;;;;6.33;5.77;;;;;;;20.90;73.51;95287.75;5075874;28;20503;-77
2023/08/13 04:13:57;;;;;;;5.90;4.87;;;;;;;21.33;70.59;95298.59;5075647;28;20493;-77
2023/08/13 04:16:24;;;;;;;5.50;4.40;;;;;;;21.86;69.33;95297.38;5076185;28;20454;-78
2023/08/13 04:18:51;;;;;;;4.73;4.37;;;;;;;22.29;66.93;95302.78;5076136;28;20438;-77
2023/08/13 04:21:17;;;;;;;6.63;4.30;;;;;;;22.68;65.36;95304.94;5076118;28;20448;-78
2023/08/13 04:23:44;;;;;;;7.23;4.53;;;;;;;23.12;63.58;95301.13;5076101;28;20439;-74
2023/08/13 04:26:11;;;;;;;4.47;4.17;;;;;;;23.58;61.83;95304.09;5075946;28;20449;-76
2023/08/13 04:28:38;;;;;;;5.63;5.07;;;;;;;24.05;59.32;95313.09;5076306;28;20435;-77
2023/08/13 04:31:06;;;;;;;6.03;4.80;;;;;;;24.49;58.37;95314.41;5076340;28;20443;-75
2023/08/13 04:33:33;;;;;;;4.60;4.20;;;;;;;24.87;57.28;95317.34;5076681;28;20541;-77
2023/08/13 04:36:00;;;;;;;5.27;4.87;;;;;;;25.27;56.23;95320.78;5075933;28;21005;-77
2023/08/13 04:38:27;;;;;;;6.20;5.33;;;;;;;25.49;54.40;95321.38;5076194;28;20523;-77
2023/08/13 04:40:54;;;;;;;7.73;6.37;;;;;;;25.68;54.33;95325.03;5057371;28;20451;-77
2023/08/13 04:43:20;;;;;;;6.13;5.50;;;;;;;25.75;54.31;95328.53;5076102;28;20922;-77
2023/08/13 04:45:48;;;;;;;6.07;5.57;;;;;;;25.80;54.16;95316.09;5075960;28;20437;-76
2023/08/13 04:48:18;;;;;;;5.87;5.37;;;;;;;25.75;53.24;95323.16;5076096;28;20468;-78
2023/08/13 04:50:44;;;;;;;5.43;5.03;;;;;;;25.70;53.93;95331.00;5075692;28;20444;-76
2023/08/13 04:53:11;;;;;;;6.03;5.47;;;;;;;25.68;54.19;95330.41;5075068;28;20981;-77
2023/08/13 04:55:38;;;;;;;7.93;4.60;;;;;;;25.72;53.69;95323.56;5075487;28;20436;-77
2023/08/13 04:58:05;;;;;;;8.70;5.20;;;;;;;25.76;54.25;95327.50;5075328;28;20969;-77
2023/08/13 05:00:32;;;;;;;5.87;4.80;;;;;;;25.71;54.24;95338.03;5056848;28;20845;-77
2023/08/13 05:02:59;;;;;;;7.13;4.47;;;;;;;25.83;53.90;95333.66;5075425;28;20787;-77
2023/08/13 05:05:28;;;;;;;6.43;5.57;;;;;;;26.06;53.69;95333.16;5075348;28;20453;-78
2023/08/13 05:07:55;;;;;;;7.27;5.40;;;;;;;26.24;52.48;95330.53;5075421;28;20463;-77
2023/08/13 05:10:22;;;;;;;5.00;4.70;;;;;;;26.44;53.16;95331.28;5075153;28;20441;-78
2023/08/13 05:12:49;;;;;;;5.90;5.10;;;;;;;26.66;52.16;95339.00;5075165;28;20969;-78
2023/08/13 05:15:15;;;;;;;6.57;6.00;;;;;;;26.62;51.85;95335.09;5074683;28;20807;-76
2023/08/13 05:17:42;;;;;;;6.10;5.60;;;;;;;26.55;52.60;95327.88;5074826;28;20437;-78
2023/08/13 05:20:10;;;;;;;8.40;6.00;;;;;;;26.63;52.85;95334.06;5075108;28;20440;-78
2023/08/13 05:22:38;;;;;;;8.47;5.23;;;;;;;26.70;52.46;95330.25;5075173;28;20449;-75
2023/08/13 05:25:05;;;;;;;7.33;5.70;;;;;;;26.76;52.29;95328.56;5056477;28;20449;-77
2023/08/13 05:27:32;;;;;;;6.63;5.20;;;;;;;26.89;51.72;95333.84;5076973;28;20444;-76
2023/08/13 05:29:59;;;;;;;6.10;5.50;;;;;;;26.96;51.96;95333.78;5074619;28;20448;-78
2023/08/13 05:32:26;;;;;;;6.00;5.50;;;;;;;27.14;51.31;95331.97;5074640;28;20481;-77
2023/08/13 05:34:53;;;;;;;8.13;5.23;;;;;;;27.35;50.08;95330.72;5075151;28;20449;-77
2023/08/13 05:37:20;;;;;;;8.50;4.90;;;;;;;27.63;49.23;95335.63;5074807;28;20446;-77
2023/08/13 05:39:48;;;;;;;6.83;4.80;;;;;;;27.89;48.37;95337.19;5074410;28;20440;-77
2023/08/13 05:42:15;;;;;;;6.63;5.93;;;;;;;28.11;47.85;95342.13;5074392;28;20455;-78
2023/08/13 05:44:42;;;;;;;5.07;4.77;;;;;;;28.30;46.39;95341.84;5072348;28;20440;-77
2023/08/13 05:47:09;;;;;;;4.90;4.50;;;;;;;28.38;44.96;95330.75;5074563;28;20460;-78
2023/08/13 05:49:40;;;;;;;7.10;4.53;;;;;;;28.51;44.58;95339.72;5074499;28;20918;-78
2023/08/13 05:52:07;;;;;;;6.43;5.00;;;;;;;28.66;44.65;95335.53;5074669;28;20579;-75
2023/08/13 05:54:33;;;;;;;5.93;5.33;;;;;;;28.71;44.42;95332.13;5074717;28;20444;-78
2023/08/13 05:57:02;;;;;;;5.73;5.23;;;;;;;28.72;45.27;95333.78;5039449;28;20800;-77
2023/08/13 05:59:28;;;;;;;5.67;5.13;;;;;;;28.86;45.71;95331.69;5073965;28;20450;-78
2023/08/13 06:01:57;;;;;;;6.23;4.80;;;;;;;28.91;44.49;95332.69;5073851;28;20455;-78
2023/08/13 06:04:24;;;;;;;5.70;5.10;;;;;;;28.92;44.14;95330.78;5072974;28;20437;-78
2023/08/13 06:06:51;;;;;;;5.57;5.07;;;;;;;28.46;44.46;95332.31;5073980;28;20437;-75
2023/08/13 06:09:17;;;;;;;5.80;4.90;;;;;;;28.54;43.82;95339.25;5073645;28;20448;-77
2023/08/13 06:11:44;;;;;;;5.27;4.73;;;;;;;28.40;44.79;95332.41;5038567;28;20438;-78
2023/08/13 06:14:15;;;;;;;5.00;4.60;;;;;;;28.37;44.78;95331.00;5073903;28;20496;-77
2023/08/13 06:16:42;;;;;;;9.63;4.40;;;;;;;28.18;44.81;95324.78;5074009;28;20436;-78
2023/08/13 06:19:09;;;;;;;5.40;5.00;;;;;;;28.17;45.03;95330.41;5074263;28;20507;-77
2023/08/13 06:21:36;;;;;;;5.40;4.90;;;;;;;28.12;44.80;95332.97;5074579;28;20437;-78
2023/08/13 06:24:05;;;;;;;6.87;5.10;;;;;;;28.30;44.83;95328.38;5073859;28;20445;-78
2023/08/13 06:26:32;;;;;;;6.80;5.90;;;;;;;28.29;43.14;95334.00;5073431;28;20884;-78
2023/08/13 06:28:59;;;;;;;5.80;5.13;;;;;;;28.27;44.56;95325.31;5074099;28;20448;-78
2023/08/13 06:31:27;;;;;;;7.23;5.70;;;;;;;28.33;45.12;95336.00;5074199;28;20448;-78
2023/08/13 06:33:54;;;;;;;6.57;5.03;;;;;;;28.37;43.46;95337.22;5074115;28;20546;-78
2023/08/13 06:36:20;;;;;;;5.23;4.73;;;;;;;28.40;43.48;95332.41;5073638;28;20491;-78
2023/08/13 06:38:48;;;;;;;5.87;4.73;;;;;;;28.76;43.05;95343.06;5073563;28;20440;-77
2023/08/13 06:41:14;;;;;;;4.87;4.43;;;;;;;28.64;41.63;95331.41;5074121;28;20437;-77
2023/08/13 06:43:41;;;;;;;5.97;5.37;;;;;;;28.57;42.67;95330.69;5037925;28;20433;-78
2023/08/13 06:46:09;;;;;;;6.90;5.10;;;;;;;28.16;43.97;95337.69;5073928;28;20446;-78
2023/08/13 06:48:38;;;;;;;5.40;4.73;;;;;;;28.14;44.17;95330.88;5073773;28;20519;-78
2023/08/13 06:51:05;;;;;;;5.70;5.10;;;;;;;28.27;44.63;95339.63;5073398;28;20449;-78
2023/08/13 06:53:32;;;;;;;4.67;4.27;;;;;;;27.90;43.71;95343.41;5073129;28;20491;-78
2023/08/13 06:56:01;;;;;;;5.50;4.43;;;;;;;27.93;44.61;95327.59;5073780;28;20935;-77
2023/08/13 06:58:28;;;;;;;6.00;5.10;;;;;;;28.21;43.68;95335.13;5073186;28;20445;-78
2023/08/13 07:00:55;;;;;;;5.00;4.60;;;;;;;28.50;43.06;95335.38;5073250;28;20943;-78
2023/08/13 07:03:22;;;;;;;5.33;4.60;;;;;;;28.52;42.64;95333.25;5073158;28;20445;-79
2023/08/13 07:05:50;;;;;;;6.40;5.33;;;;;;;28.63;42.35;95329.78;5073429;28;20447;-78
2023/08/13 07:08:17;;;;;;;6.43;5.07;;;;;;;28.64;42.46;95320.63;5073610;28;20451;-80
2023/08/13 07:10:43;;;;;;;5.40;4.70;;;;;;;28.57;42.75;95322.56;5054943;28;20444;-79
2023/08/13 07:13:10;;;;;;;5.17;4.77;;;;;;;28.66;40.99;95315.81;5073876;28;20495;-78
2023/08/13 07:15:37;;;;;;;5.17;4.30;;;;;;;28.75;42.14;95322.50;5074038;28;20927;-79
2023/08/13 07:18:04;;;;;;;5.30;4.80;;;;;;;28.94;41.62;95323.28;5055688;28;20441;-79
2023/08/13 07:20:31;;;;;;;10.93;4.70;;;;;;;29.06;41.01;95324.09;5073884;28;20440;-80
2023/08/13 07:23:00;;;;;;;5.30;4.90;;;;;;;29.23;42.42;95322.34;5074497;28;20444;-79
2023/08/13 07:25:27;;;;;;;4.80;4.40;;;;;;;29.23;40.48;95324.22;5038383;28;20496;-79
2023/08/13 07:27:55;;;;;;;6.23;4.90;;;;;;;29.36;40.85;95315.03;5073633;28;20441;-78
2023/08/13 07:30:21;;;;;;;5.27;4.77;;;;;;;29.41;40.16;95313.25;5073817;28;20445;-77
2023/08/13 07:32:48;;;;;;;5.33;4.57;;;;;;;29.53;40.76;95318.72;5073107;28;20488;-78
2023/08/13 07:35:23;;;;;;;5.20;4.80;;;;;;;29.53;39.77;95319.53;5073758;28;20502;-77
2023/08/13 07:37:50;;;;;;;7.93;4.87;;;;;;;29.62;39.86;95319.97;5074121;28;20456;-78
2023/08/13 07:40:18;;;;;;;7.83;4.60;;;;;;;29.87;39.57;95319.69;5072290;28;20783;-78
2023/08/13 07:42:45;;;;;;;6.53;5.20;;;;;;;29.49;40.13;95312.09;5074429;28;20448;-78
2023/08/13 07:45:12;;;;;;;4.83;4.33;;;;;;;29.69;39.30;95312.53;5055959;28;20806;-79
2023/08/13 07:47:42;;;;;;;4.97;4.53;;;;;;;29.85;39.59;95313.69;5083060;28;20488;-77
2023/08/13 07:50:10;;;;;;;6.30;4.30;;;;;;;29.89;39.67;95318.38;5078523;28;20931;-76
2023/08/13 07:52:37;;;;;;;5.27;4.53;;;;;;;29.43;39.99;95313.03;5057059;28;20432;-77
2023/08/13 07:55:07;;;;;;;6.87;5.27;;;;;;;29.28;39.77;95308.94;5091996;28;20436;-76
2023/08/13 07:57:35;;;;;;;5.93;4.30;;;;;;;29.51;40.08;95308.13;5056555;28;20443;-77
2023/08/13 08:00:02;;;;;;;4.50;4.20;;;;;;;29.33;38.85;95302.81;5092217;28;20440;-76
2023/08/13 08:02:29;;;;;;;4.83;4.40;;;;;;;28.90;40.25;95298.56;5073333;28;20516;-77
2023/08/13 08:04:56;;;;;;;6.53;4.67;;;;;;;28.60;39.86;95304.03;5089471;28;20449;-78
2023/08/13 08:07:25;;;;;;;8.87;5.00;;;;;;;28.86;41.50;95293.88;5089810;28;20441;-78
2023/08/13 08:09:52;;;;;;;5.13;4.70;;;;;;;28.92;41.48;95301.06;5087995;28;20459;-77
2023/08/13 08:12:19;;;;;;;4.70;4.30;;;;;;;28.75;42.21;95295.50;5086750;28;20452;-75
2023/08/13 08:14:47;;;;;;;4.50;4.00;;;;;;;28.86;41.25;95297.41;5083491;28;20488;-77
2023/08/13 08:17:14;;;;;;;4.47;4.07;;;;;;;28.92;39.18;95296.50;5083829;28;20500;-77
2023/08/13 08:19:41;;;;;;;4.57;4.17;;;;;;;29.13;39.79;95280.72;5076381;28;20449;-77
2023/08/13 08:22:08;;;;;;;4.17;3.87;;;;;;;29.20;40.20;95281.41;5072437;28;20448;-77
2023/08/13 08:24:35;;;;;;;5.57;4.23;;;;;;;29.21;40.26;95278.50;5072654;28;20531;-78
2023/08/13 08:27:03;;;;;;;4.83;4.10;;;;;;;29.09;39.28;95274.16;5079021;28;20440;-78
2023/08/13 08:29:29;;;;;;;4.60;4.20;;;;;;;29.03;40.40;95284.03;5080720;28;20495;-78
2023/08/13 08:31:58;;;;;;;4.63;4.23;;;;;;;28.98;39.92;95267.69;5078283;28;20448;-78
2023/08/13 08:34:25;;;;;;;4.43;4.03;;;;;;;29.13;39.08;95267.22;5079123;28;20480;-78
2023/08/13 08:36:52;;;;;;;5.13;4.70;;;;;;;29.22;40.08;95258.53;5076166;28;20445;-76
2023/08/13 08:39:19;;;;;;;3.53;3.33;;;;;;;29.17;38.87;95260.28;5076392;28;20448;-78
2023/08/13 08:41:47;;;;;;;5.10;4.43;;;;;;;29.12;39.79;95252.06;5076214;28;20437;-79
2023/08/13 08:44:20;;;;;;;4.37;4.07;;;;;;;28.97;38.57;95249.84;5077075;28;20455;-78
2023/08/13 08:46:48;;;;;;;5.03;4.63;;;;;;;28.96;39.04;95259.84;5076809;28;20441;-78
2023/08/13 08:49:18;;;;;;;4.63;4.10;;;;;;;29.22;38.58;95258.53;5076408;28;20819;-78
2023/08/13 08:51:45;;;;;;;7.53;4.60;;;;;;;29.55;38.60;95257.91;5057903;28;20448;-78
2023/08/13 08:54:12;;;;;;;4.27;3.90;;;;;;;29.53;37.00;95253.78;5075808;28;20861;-78
2023/08/13 08:56:39;;;;;;;5.73;4.40;;;;;;;29.22;37.30;95253.13;5057390;28;20849;-79
2023/08/13 08:59:06;;;;;;;4.90;4.47;;;;;;;29.02;38.67;95249.94;5076994;28;20444;-78
2023/08/13 09:01:33;;;;;;;4.93;4.07;;;;;;;28.60;38.53;95249.19;5076880;28;20437;-79
2023/08/13 09:04:00;;;;;;;4.00;3.70;;;;;;;28.57;39.34;95255.06;5076532;28;20448;-77
2023/08/13 09:06:56;;;;;;;5.50;4.00;;;;;;;28.82;37.67;95236.75;5076407;28;20459;-75
2023/08/13 09:09:23;;;;;;;6.20;4.47;;;;;;;28.71;38.00;95237.59;5075913;28;20971;-78
2023/08/13 09:11:51;;;;;;;10.73;3.80;;;;;;;28.71;39.69;95243.00;5075922;28;20444;-78
2023/08/13 09:14:18;;;;;;;4.70;4.33;;;;;;;28.94;38.49;95234.94;5075653;28;20488;-79
2023/08/13 09:16:50;;;;;;;5.13;4.07;;;;;;;28.92;38.79;95237.06;5076024;28;20433;-78
2023/08/13 09:19:18;;;;;;;4.27;3.97;;;;;;;28.94;38.50;95234.09;5075953;28;20440;-78
2023/08/13 09:21:52;;;;;;;4.23;3.80;;;;;;;28.68;38.94;95228.09;5075687;28;20452;-84
2023/08/13 09:24:30;;;;;;;4.80;4.40;;;;;;;28.75;39.43;95227.97;5075486;28;20441;-78
2023/08/13 09:26:58;;;;;;;8.30;4.17;;;;;;;28.27;39.72;95230.84;5075684;28;20429;-79
2023/08/13 09:29:24;;;;;;;7.60;4.43;;;;;;;28.11;40.33;95226.91;5075620;28;20448;-77
2023/08/13 09:31:51;;;;;;;4.97;4.43;;;;;;;28.47;41.09;95225.13;5075418;28;20692;-78
2023/08/13 09:34:18;;;;;;;4.37;3.93;;;;;;;28.60;40.03;95227.59;5075785;28;20880;-78
2023/08/13 09:36:45;;;;;;;4.13;3.83;;;;;;;28.78;37.86;95219.38;5075108;28;20465;-78
2023/08/13 09:39:12;;;;;;;4.83;4.43;;;;;;;28.87;38.64;95209.88;5075185;28;20468;-77
2023/08/13 09:41:41;;;;;;;4.70;4.30;;;;;;;29.16;39.35;95223.50;5075132;28;20437;-77
2023/08/13 09:44:10;;;;;;;4.73;3.80;;;;;;;29.40;37.35;95216.97;5075157;28;20468;-78
2023/08/13 09:46:41;;;;;;;3.80;3.50;;;;;;;29.18;38.03;95221.38;5075112;28;20441;-77
2023/08/13 09:49:11;;;;;;;4.33;4.03;;;;;;;28.12;40.10;95225.84;5075742;28;20928;-78
2023/08/13 09:51:43;;;;;;;4.57;4.23;;;;;;;28.19;41.04;95220.34;5075022;28;20452;-75
2023/08/13 09:54:15;;;;;;;4.20;3.80;;;;;;;27.64;39.89;95218.63;5075133;28;20480;-77
2023/08/13 09:56:49;;;;;;;4.97;4.57;;;;;;;27.52;41.82;95219.63;5074717;28;20468;-78
2023/08/13 09:59:16;;;;;;;4.80;4.30;;;;;;;27.61;40.96;95221.75;5075199;28;20439;-75
2023/08/13 10:01:44;;;;;;;6.37;5.13;;;;;;;27.66;40.01;95221.94;5074404;28;20452;-78
2023/08/13 10:04:11;;;;;;;4.83;4.53;;;;;;;27.33;39.50;95213.41;5074931;28;20440;-77
2023/08/13 10:06:39;;;;;;;4.80;4.40;;;;;;;27.55;39.78;95209.19;5074246;28;20433;-77
2023/08/13 10:09:07;;;;;;;4.90;4.00;;;;;;;27.92;40.49;95214.53;5074091;28;20441;-78
2023/08/13 10:11:34;;;;;;;12.40;4.43;;;;;;;28.14;41.08;95212.94;5073986;28;20543;-79
2023/08/13 10:14:02;;;;;;;4.10;3.80;;;;;;;28.08;42.08;95208.47;5074086;28;20492;-78
2023/08/13 10:16:30;;;;;;;4.93;4.57;;;;;;;28.26;41.84;95204.91;5074468;28;20886;-78
2023/08/13 10:18:59;;;;;;;5.17;4.67;;;;;;;28.22;41.76;95212.59;5055589;28;20433;-79
2023/08/13 10:21:36;;;;;;;4.40;4.07;;;;;;;28.11;42.78;95202.63;5074396;28;20946;-77
2023/08/13 10:24:04;;;;;;;5.30;4.80;;;;;;;27.89;41.30;95212.28;5074108;28;20448;-80
2023/08/13 10:26:35;;;;;;;5.23;4.83;;;;;;;27.57;42.56;95217.88;5074239;28;20515;-78
2023/08/13 10:29:17;;;;;;;4.30;3.90;;;;;;;27.46;42.21;95203.28;5074076;28;20440;-78
2023/08/13 10:32:11;;;;;;;4.70;4.30;;;;;;;27.09;42.91;95209.75;5074164;28;20432;-77
2023/08/13 10:34:41;;;;;;;6.93;5.50;;;;;;;27.01;44.02;95213.56;5074084;28;20480;-77
2023/08/13 10:37:17;;;;;;;4.80;4.50;;;;;;;27.08;44.70;95208.94;5074467;28;20452;-77
2023/08/13 10:39:45;;;;;;;7.97;4.63;;;;;;;27.31;43.84;95197.47;5073814;28;20440;-78
2023/08/13 10:42:50;;;;;;;4.57;4.17;;;;;;;27.51;43.67;95208.00;5073493;28;20465;-76
2023/08/13 10:45:19;;;;;;;7.70;5.13;;;;;;;27.63;42.23;95216.16;5073940;28;20451;-78
2023/08/13 10:47:48;;;;;;;8.20;4.90;;;;;;;27.47;42.26;95214.91;5074538;28;20436;-78
2023/08/13 10:50:21;;;;;;;6.03;4.33;;;;;;;27.39;43.21;95205.25;5074329;28;20820;-78
2023/08/13 10:52:48;;;;;;;5.37;4.97;;;;;;;27.33;43.04;95205.31;5074704;28;20859;-78
2023/08/13 10:55:19;;;;;;;6.83;4.30;;;;;;;27.40;42.01;95203.38;5073211;28;21024;-77
2023/08/13 10:57:50;;;;;;;6.30;4.60;;;;;;;27.49;42.13;95199.31;5073133;28;20943;-77
2023/08/13 11:00:19;;;;;;;5.63;4.70;;;;;;;27.44;43.79;95201.84;5072941;28;20473;-76
2023/08/13 11:02:46;;;;;;;4.27;3.97;;;;;;;27.45;44.56;95198.09;5072483;28;20502;-78
2023/08/13 11:05:13;;;;;;;5.40;4.97;;;;;;;27.46;42.90;95191.66;5072713;28;20444;-78
2023/08/13 11:07:40;;;;;;;4.97;4.57;;;;;;;27.41;43.35;95196.91;5073005;28;20486;-79
2023/08/13 11:10:08;;;;;;;5.47;4.90;;;;;;;27.41;44.19;95186.97;5073521;28;20437;-79
2023/08/13 11:12:34;;;;;;;5.10;4.80;;;;;;;27.60;43.19;95195.84;5072663;28;20506;-78
2023/08/13 11:15:01;;;;;;;7.90;5.57;;;;;;;27.69;42.50;95197.19;5072907;28;20541;-77
2023/08/13 11:17:30;;;;;;;5.53;5.07;;;;;;;27.77;43.21;95190.69;5073254;28;20474;-78
2023/08/13 11:19:57;;;;;;;5.60;5.10;;;;;;;27.80;43.34;95194.78;5072993;28;20441;-78
2023/08/13 11:22:25;;;;;;;4.87;4.57;;;;;;;27.46;45.14;95191.66;5072832;28;20445;-77
2023/08/13 11:24:52;;;;;;;5.67;5.17;;;;;;;27.38;46.09;95190.13;5072694;28;20506;-78
2023/08/13 11:27:19;;;;;;;6.63;5.50;;;;;;;27.16;46.86;95187.06;5072864;28;20482;-79
2023/08/13 11:29:46;;;;;;;8.20;5.10;;;;;;;27.08;45.78;95178.47;5072886;28;20448;-78
2023/08/13 11:32:13;;;;;;;5.93;5.33;;;;;;;27.22;45.91;95184.53;5072484;28;20932;-78
2023/08/13 11:34:41;;;;;;;6.13;5.60;;;;;;;27.28;45.80;95191.72;5072403;28;20485;-78
2023/08/13 11:37:17;;;;;;;5.30;4.80;;;;;;;27.20;45.67;95187.47;5072352;28;20443;-78
2023/08/13 11:39:44;;;;;;;5.97;5.47;;;;;;;27.28;46.37;95189.00;5055991;28;20440;-77